sensor_id;sensor_type;location;lat;lon;timestamp;pressure;altitude;pressure_sealevel;temperature;humidity
72798;BME280;61084;55.816;37.036;2022-08-07T00:01:22;99609.91;;;21.96;57.86
72798;BME280;61084;55.816;37.036;2022-08-07T00:03:48;99608.22;;;21.95;57.98
72798;BME280;61084;55.816;37.036;2022-08-07T00:06:14;99609.50;;;21.91;58.22
72798;BME280;61084;55.816;37.036;2022-08-07T00:08:39;99605.28;;;21.89;58.10
72798;BME280;61084;55.816;37.036;2022-08-07T00:11:05;99605.44;;;21.87;58.00
72798;BME280;61084;55.816;37.036;2022-08-07T00:13:32;99602.06;;;21.85;59.06
72798;BME280;61084;55.816;37.036;2022-08-07T00:15:59;99599.53;;;21.84;58.21
72798;BME280;61084;55.816;37.036;2022-08-07T00:18:27;99601.47;;;21.82;58.20
72798;BME280;61084;55.816;37.036;2022-08-07T00:20:55;99595.44;;;21.79;58.21
72798;BME280;61084;55.816;37.036;2022-08-07T00:23:21;99601.91;;;21.77;58.16
72798;BME280;61084;55.816;37.036;2022-08-07T00:25:48;99597.16;;;21.71;59.28
72798;BME280;61084;55.816;37.036;2022-08-07T00:28:14;99602.94;;;21.66;58.67
72798;BME280;61084;55.816;37.036;2022-08-07T00:30:39;99604.91;;;21.64;58.75
72798;BME280;61084;55.816;37.036;2022-08-07T00:33:05;99606.06;;;21.62;58.67
72798;BME280;61084;55.816;37.036;2022-08-07T00:35:31;99603.53;;;21.60;58.46
72798;BME280;61084;55.816;37.036;2022-08-07T00:37:58;99598.34;;;21.59;58.74
72798;BME280;61084;55.816;37.036;2022-08-07T00:40:24;99603.84;;;21.57;58.86
72798;BME280;61084;55.816;37.036;2022-08-07T00:42:50;99599.75;;;21.53;58.78
72798;BME280;61084;55.816;37.036;2022-08-07T00:45:16;99599.22;;;21.50;58.78
72798;BME280;61084;55.816;37.036;2022-08-07T00:47:42;99603.00;;;21.47;58.90
72798;BME280;61084;55.816;37.036;2022-08-07T00:50:08;99598.94;;;21.43;58.67
72798;BME280;61084;55.816;37.036;2022-08-07T00:52:34;99602.59;;;21.42;58.93
72798;BME280;61084;55.816;37.036;2022-08-07T00:55:00;99602.75;;;21.41;59.12
72798;BME280;61084;55.816;37.036;2022-08-07T00:57:26;99599.22;;;21.40;59.18
72798;BME280;61084;55.816;37.036;2022-08-07T00:59:52;99598.84;;;21.35;59.29
72798;BME280;61084;55.816;37.036;2022-08-07T01:02:20;99598.84;;;21.35;59.48
72798;BME280;61084;55.816;37.036;2022-08-07T01:04:46;99597.28;;;21.33;59.27
72798;BME280;61084;55.816;37.036;2022-08-07T01:07:12;99596.59;;;21.31;59.51
72798;BME280;61084;55.816;37.036;2022-08-07T01:09:38;99594.91;;;21.30;59.44
72798;BME280;61084;55.816;37.036;2022-08-07T01:12:04;99591.69;;;21.26;59.70
72798;BME280;61084;55.816;37.036;2022-08-07T01:14:30;99586.63;;;21.23;59.64
72798;BME280;61084;55.816;37.036;2022-08-07T01:16:57;99589.28;;;21.23;59.54
72798;BME280;61084;55.816;37.036;2022-08-07T01:19:26;99584.09;;;21.22;59.73
72798;BME280;61084;55.816;37.036;2022-08-07T01:21:54;99587.91;;;21.19;59.58
72798;BME280;61084;55.816;37.036;2022-08-07T01:24:23;99588.91;;;21.18;59.65
72798;BME280;61084;55.816;37.036;2022-08-07T01:26:50;99578.34;;;21.17;59.55
72798;BME280;61084;55.816;37.036;2022-08-07T01:29:16;99581.00;;;21.17;59.79
72798;BME280;61084;55.816;37.036;2022-08-07T01:31:42;99584.69;;;21.16;59.65
72798;BME280;61084;55.816;37.036;2022-08-07T01:34:10;99581.16;;;21.15;59.63
72798;BME280;61084;55.816;37.036;2022-08-07T01:36:39;99576.94;;;21.13;59.74
72798;BME280;61084;55.816;37.036;2022-08-07T01:39:11;99577.94;;;21.12;59.91
72798;BME280;61084;55.816;37.036;2022-08-07T01:41:41;99564.88;;;21.09;59.87
72798;BME280;61084;55.816;37.036;2022-08-07T01:44:09;99567.53;;;21.09;59.79
72798;BME280;61084;55.816;37.036;2022-08-07T01:46:38;99576.69;;;21.06;59.87
72798;BME280;61084;55.816;37.036;2022-08-07T01:49:05;99579.75;;;21.01;60.04
72798;BME280;61084;55.816;37.036;2022-08-07T01:51:32;99581.56;;;21.01;59.91
72798;BME280;61084;55.816;37.036;2022-08-07T01:54:02;99590.56;;;21.00;60.39
72798;BME280;61084;55.816;37.036;2022-08-07T01:56:34;99583.53;;;20.99;60.62
72798;BME280;61084;55.816;37.036;2022-08-07T01:59:06;99581.00;;;20.97;61.52
72798;BME280;61084;55.816;37.036;2022-08-07T02:01:39;99575.81;;;20.96;60.84
72798;BME280;61084;55.816;37.036;2022-08-07T02:06:40;99578.91;;;20.91;60.73
72798;BME280;61084;55.816;37.036;2022-08-07T02:09:11;99581.00;;;20.88;61.04
72798;BME280;61084;55.816;37.036;2022-08-07T02:11:43;99584.69;;;20.87;61.25
72798;BME280;61084;55.816;37.036;2022-08-07T02:14:11;99589.88;;;20.88;60.84
72798;BME280;61084;55.816;37.036;2022-08-07T02:16:38;99589.00;;;20.88;60.85
72798;BME280;61084;55.816;37.036;2022-08-07T02:19:08;99587.19;;;20.88;61.01
72798;BME280;61084;55.816;37.036;2022-08-07T02:21:36;99579.34;;;20.87;60.74
72798;BME280;61084;55.816;37.036;2022-08-07T02:24:04;99574.97;;;20.86;61.23
72798;BME280;61084;55.816;37.036;2022-08-07T02:26:32;99576.94;;;20.84;60.99
72798;BME280;61084;55.816;37.036;2022-08-07T02:29:00;99576.13;;;20.83;61.10
72798;BME280;61084;55.816;37.036;2022-08-07T02:31:28;99575.97;;;20.85;61.24
72798;BME280;61084;55.816;37.036;2022-08-07T02:33:57;99578.66;;;20.85;61.19
72798;BME280;61084;55.816;37.036;2022-08-07T02:36:25;99582.16;;;20.85;61.33
72798;BME280;61084;55.816;37.036;2022-08-07T02:38:55;99585.53;;;20.87;61.46
72798;BME280;61084;55.816;37.036;2022-08-07T02:41:23;99584.53;;;20.88;61.48
72798;BME280;61084;55.816;37.036;2022-08-07T02:43:51;99582.56;;;20.90;61.55
72798;BME280;61084;55.816;37.036;2022-08-07T02:46:22;99588.31;;;20.95;61.73
72798;BME280;61084;55.816;37.036;2022-08-07T02:48:49;99582.72;;;20.98;61.38
72798;BME280;61084;55.816;37.036;2022-08-07T02:51:18;99585.94;;;21.02;61.67
72798;BME280;61084;55.816;37.036;2022-08-07T02:53:46;99577.53;;;21.07;61.34
72798;BME280;61084;55.816;37.036;2022-08-07T02:56:21;99579.91;;;21.10;61.50
72798;BME280;61084;55.816;37.036;2022-08-07T02:58:51;99587.34;;;21.16;61.38
72798;BME280;61084;55.816;37.036;2022-08-07T03:01:19;99586.94;;;21.20;60.78
72798;BME280;61084;55.816;37.036;2022-08-07T03:03:48;99591.00;;;21.24;61.05
72798;BME280;61084;55.816;37.036;2022-08-07T03:06:17;99591.53;;;21.28;61.24
72798;BME280;61084;55.816;37.036;2022-08-07T03:08:45;99586.63;;;21.33;61.41
72798;BME280;61084;55.816;37.036;2022-08-07T03:11:11;99588.69;;;21.39;61.22
72798;BME280;61084;55.816;37.036;2022-08-07T03:13:41;99592.47;;;21.46;61.40
72798;BME280;61084;55.816;37.036;2022-08-07T03:16:09;99584.72;;;21.52;61.47
72798;BME280;61084;55.816;37.036;2022-08-07T03:18:35;99591.19;;;21.59;61.26
72798;BME280;61084;55.816;37.036;2022-08-07T03:21:04;99588.88;;;21.64;61.21
72798;BME280;61084;55.816;37.036;2022-08-07T03:23:32;99582.97;;;21.70;61.15
72798;BME280;61084;55.816;37.036;2022-08-07T03:26:00;99586.88;;;21.76;61.07
72798;BME280;61084;55.816;37.036;2022-08-07T03:28:32;99589.84;;;21.83;60.92
72798;BME280;61084;55.816;37.036;2022-08-07T03:31:02;99589.25;;;21.89;60.85
72798;BME280;61084;55.816;37.036;2022-08-07T03:33:58;99588.53;;;21.96;61.06
72798;BME280;61084;55.816;37.036;2022-08-07T03:36:26;99582.41;;;22.04;60.71
72798;BME280;61084;55.816;37.036;2022-08-07T03:38:57;99575.31;;;22.12;60.52
72798;BME280;61084;55.816;37.036;2022-08-07T03:41:25;99574.03;;;22.16;60.35
72798;BME280;61084;55.816;37.036;2022-08-07T03:43:51;99572.59;;;22.22;60.38
72798;BME280;61084;55.816;37.036;2022-08-07T03:46:19;99584.22;;;22.30;60.18
72798;BME280;61084;55.816;37.036;2022-08-07T03:48:50;99578.09;;;22.38;59.95
72798;BME280;61084;55.816;37.036;2022-08-07T03:51:17;99574.16;;;22.42;60.03
72798;BME280;61084;55.816;37.036;2022-08-07T03:53:44;99573.84;;;22.45;59.98
72798;BME280;61084;55.816;37.036;2022-08-07T03:56:18;99579.28;;;22.53;59.97
72798;BME280;61084;55.816;37.036;2022-08-07T03:58:46;99574.72;;;22.63;59.48
72798;BME280;61084;55.816;37.036;2022-08-07T04:01:12;99577.34;;;22.73;59.42
72798;BME280;61084;55.816;37.036;2022-08-07T04:03:42;99573.59;;;22.83;59.36
72798;BME280;61084;55.816;37.036;2022-08-07T04:06:09;99576.31;;;22.91;59.11
72798;BME280;61084;55.816;37.036;2022-08-07T04:08:37;99574.53;;;23.00;59.01
72798;BME280;61084;55.816;37.036;2022-08-07T04:11:05;99573.78;;;23.07;58.94
72798;BME280;61084;55.816;37.036;2022-08-07T04:13:33;99579.19;;;23.15;59.25
72798;BME280;61084;55.816;37.036;2022-08-07T04:15:59;99580.78;;;23.26;58.91
72798;BME280;61084;55.816;37.036;2022-08-07T04:18:25;99587.72;;;23.37;59.09
72798;BME280;61084;55.816;37.036;2022-08-07T04:20:51;99583.44;;;23.44;58.57
72798;BME280;61084;55.816;37.036;2022-08-07T04:23:17;99574.59;;;23.51;58.67
72798;BME280;61084;55.816;37.036;2022-08-07T04:25:44;99573.50;;;23.62;58.12
72798;BME280;61084;55.816;37.036;2022-08-07T04:28:11;99577.56;;;23.74;57.95
72798;BME280;61084;55.816;37.036;2022-08-07T04:30:38;99581.50;;;23.87;57.56
72798;BME280;61084;55.816;37.036;2022-08-07T04:33:10;99581.03;;;24.00;57.74
72798;BME280;61084;55.816;37.036;2022-08-07T04:35:43;99585.78;;;24.06;57.24
72798;BME280;61084;55.816;37.036;2022-08-07T04:38:13;99607.97;;;24.16;56.84
72798;BME280;61084;55.816;37.036;2022-08-07T04:40:45;99604.28;;;24.25;57.18
72798;BME280;61084;55.816;37.036;2022-08-07T04:43:16;99599.66;;;24.35;56.84
72798;BME280;61084;55.816;37.036;2022-08-07T04:45:58;99596.78;;;24.45;56.67
72798;BME280;61084;55.816;37.036;2022-08-07T04:49:02;99598.50;;;24.54;56.22
72798;BME280;61084;55.816;37.036;2022-08-07T04:54:32;99602.94;;;24.79;55.81
72798;BME280;61084;55.816;37.036;2022-08-07T04:59:43;99605.50;;;24.97;55.02
72798;BME280;61084;55.816;37.036;2022-08-07T05:02:26;99609.69;;;25.07;55.41
72798;BME280;61084;55.816;37.036;2022-08-07T05:05:11;99603.44;;;25.23;54.58
72798;BME280;61084;55.816;37.036;2022-08-07T05:10:34;99610.03;;;25.45;54.55
72798;BME280;61084;55.816;37.036;2022-08-07T05:13:08;99604.25;;;25.56;54.55
72798;BME280;61084;55.816;37.036;2022-08-07T05:15:38;99601.06;;;25.68;53.97
72798;BME280;61084;55.816;37.036;2022-08-07T05:18:33;99615.66;;;25.74;53.67
72798;BME280;61084;55.816;37.036;2022-08-07T05:21:03;99605.94;;;25.73;53.77
72798;BME280;61084;55.816;37.036;2022-08-07T05:23:57;99611.78;;;25.76;53.63
72798;BME280;61084;55.816;37.036;2022-08-07T05:26:26;99608.78;;;25.79;53.38
72798;BME280;61084;55.816;37.036;2022-08-07T05:29:05;99606.38;;;25.92;53.09
72798;BME280;61084;55.816;37.036;2022-08-07T05:31:36;99613.69;;;26.06;53.12
72798;BME280;61084;55.816;37.036;2022-08-07T05:34:15;99612.34;;;26.19;52.53
72798;BME280;61084;55.816;37.036;2022-08-07T05:36:49;99608.25;;;26.31;52.69
72798;BME280;61084;55.816;37.036;2022-08-07T05:39:24;99616.59;;;26.44;52.67
72798;BME280;61084;55.816;37.036;2022-08-07T05:41:53;99620.91;;;26.53;52.75
72798;BME280;61084;55.816;37.036;2022-08-07T05:44:20;99622.44;;;26.47;52.23
72798;BME280;61084;55.816;37.036;2022-08-07T05:46:47;99624.84;;;26.42;52.09
72798;BME280;61084;55.816;37.036;2022-08-07T05:49:14;99625.50;;;26.44;51.94
72798;BME280;61084;55.816;37.036;2022-08-07T05:51:44;99609.50;;;26.51;51.81
72798;BME280;61084;55.816;37.036;2022-08-07T05:54:11;99611.28;;;26.58;51.76
72798;BME280;61084;55.816;37.036;2022-08-07T05:56:41;99608.38;;;26.68;51.50
72798;BME280;61084;55.816;37.036;2022-08-07T05:59:12;99606.28;;;26.78;51.44
72798;BME280;61084;55.816;37.036;2022-08-07T06:01:41;99613.25;;;26.95;52.10
72798;BME280;61084;55.816;37.036;2022-08-07T06:04:10;99608.19;;;27.15;51.51
72798;BME280;61084;55.816;37.036;2022-08-07T06:06:40;99611.09;;;27.28;51.30
72798;BME280;61084;55.816;37.036;2022-08-07T06:09:08;99613.25;;;27.40;51.40
72798;BME280;61084;55.816;37.036;2022-08-07T06:11:38;99607.47;;;27.43;51.24
72798;BME280;61084;55.816;37.036;2022-08-07T06:14:04;99611.56;;;27.54;51.24
72798;BME280;61084;55.816;37.036;2022-08-07T06:16:32;99618.38;;;27.64;50.93
72798;BME280;61084;55.816;37.036;2022-08-07T06:19:00;99612.41;;;27.69;50.68
72798;BME280;61084;55.816;37.036;2022-08-07T06:21:28;99622.19;;;27.70;50.74
72798;BME280;61084;55.816;37.036;2022-08-07T06:23:55;99613.34;;;27.76;50.33
72798;BME280;61084;55.816;37.036;2022-08-07T06:26:23;99613.06;;;27.71;49.94
72798;BME280;61084;55.816;37.036;2022-08-07T06:28:54;99616.81;;;27.70;50.07
72798;BME280;61084;55.816;37.036;2022-08-07T06:31:23;99622.00;;;27.72;49.70
72798;BME280;61084;55.816;37.036;2022-08-07T06:33:51;99622.50;;;27.90;50.14
72798;BME280;61084;55.816;37.036;2022-08-07T06:36:17;99621.50;;;28.05;50.11
72798;BME280;61084;55.816;37.036;2022-08-07T06:38:48;99618.34;;;28.16;49.78
72798;BME280;61084;55.816;37.036;2022-08-07T06:41:25;99609.28;;;28.24;49.86
72798;BME280;61084;55.816;37.036;2022-08-07T06:43:53;99614.00;;;28.36;49.94
72798;BME280;61084;55.816;37.036;2022-08-07T06:46:23;99624.13;;;28.49;49.36
72798;BME280;61084;55.816;37.036;2022-08-07T06:48:49;99617.88;;;28.63;49.37
72798;BME280;61084;55.816;37.036;2022-08-07T06:51:23;99621.63;;;28.83;48.90
72798;BME280;61084;55.816;37.036;2022-08-07T06:53:52;99627.47;;;29.08;49.04
72798;BME280;61084;55.816;37.036;2022-08-07T06:56:20;99635.22;;;29.32;48.52
72798;BME280;61084;55.816;37.036;2022-08-07T06:59:07;99622.25;;;29.49;48.15
72798;BME280;61084;55.816;37.036;2022-08-07T07:01:37;99616.94;;;29.62;47.75
72798;BME280;61084;55.816;37.036;2022-08-07T07:04:06;99623.97;;;29.77;47.94
72798;BME280;61084;55.816;37.036;2022-08-07T07:06:32;99615.25;;;29.89;47.81
72798;BME280;61084;55.816;37.036;2022-08-07T07:09:23;99621.97;;;29.93;46.61
72798;BME280;61084;55.816;37.036;2022-08-07T07:12:13;99622.22;;;30.04;46.33
72798;BME280;61084;55.816;37.036;2022-08-07T07:14:48;99614.97;;;30.11;46.36
72798;BME280;61084;55.816;37.036;2022-08-07T07:17:19;99615.00;;;30.18;46.03
72798;BME280;61084;55.816;37.036;2022-08-07T07:19:48;99614.03;;;30.25;46.14
72798;BME280;61084;55.816;37.036;2022-08-07T07:22:17;99620.75;;;30.36;45.61
72798;BME280;61084;55.816;37.036;2022-08-07T07:24:45;99622.47;;;30.50;46.39
72798;BME280;61084;55.816;37.036;2022-08-07T07:27:13;99626.91;;;30.64;45.84
72798;BME280;61084;55.816;37.036;2022-08-07T07:29:44;99622.16;;;30.79;45.52
72798;BME280;61084;55.816;37.036;2022-08-07T07:32:13;99618.19;;;30.82;45.01
72798;BME280;61084;55.816;37.036;2022-08-07T07:34:45;99629.00;;;30.69;44.71
72798;BME280;61084;55.816;37.036;2022-08-07T07:37:12;99621.88;;;30.61;45.26
72798;BME280;61084;55.816;37.036;2022-08-07T07:39:40;99616.25;;;30.63;45.15
72798;BME280;61084;55.816;37.036;2022-08-07T07:42:08;99617.91;;;30.57;44.41
72798;BME280;61084;55.816;37.036;2022-08-07T07:44:37;99621.63;;;30.49;44.17
72798;BME280;61084;55.816;37.036;2022-08-07T07:47:06;99622.03;;;30.46;44.72
72798;BME280;61084;55.816;37.036;2022-08-07T07:49:33;99622.66;;;30.42;44.96
72798;BME280;61084;55.816;37.036;2022-08-07T07:52:01;99620.16;;;30.40;44.92
72798;BME280;61084;55.816;37.036;2022-08-07T07:54:28;99623.03;;;30.39;44.94
72798;BME280;61084;55.816;37.036;2022-08-07T07:56:56;99627.84;;;30.37;45.52
72798;BME280;61084;55.816;37.036;2022-08-07T07:59:24;99622.66;;;30.42;45.35
72798;BME280;61084;55.816;37.036;2022-08-07T08:01:50;99627.25;;;30.48;45.36
72798;BME280;61084;55.816;37.036;2022-08-07T08:04:17;99637.50;;;30.52;45.24
72798;BME280;61084;55.816;37.036;2022-08-07T08:06:45;99631.06;;;30.60;45.35
72798;BME280;61084;55.816;37.036;2022-08-07T08:09:14;99633.38;;;30.70;44.73
72798;BME280;61084;55.816;37.036;2022-08-07T08:11:42;99623.03;;;30.86;44.74
72798;BME280;61084;55.816;37.036;2022-08-07T08:14:08;99627.63;;;30.99;44.42
72798;BME280;61084;55.816;37.036;2022-08-07T08:16:38;99624.72;;;31.13;44.97
72798;BME280;61084;55.816;37.036;2022-08-07T08:19:07;99616.38;;;31.21;43.52
72798;BME280;61084;55.816;37.036;2022-08-07T08:21:36;99616.38;;;31.28;44.15
72798;BME280;61084;55.816;37.036;2022-08-07T08:24:23;99619.97;;;31.42;44.24
72798;BME280;61084;55.816;37.036;2022-08-07T08:27:10;99613.06;;;31.59;43.92
72798;BME280;61084;55.816;37.036;2022-08-07T08:29:51;99618.06;;;31.75;42.71
72798;BME280;61084;55.816;37.036;2022-08-07T08:32:24;99611.56;;;31.82;43.10
72798;BME280;61084;55.816;37.036;2022-08-07T08:34:52;99608.19;;;31.93;43.40
72798;BME280;61084;55.816;37.036;2022-08-07T08:37:19;99598.56;;;32.04;43.17
72798;BME280;61084;55.816;37.036;2022-08-07T08:39:47;99600.88;;;32.07;42.27
72798;BME280;61084;55.816;37.036;2022-08-07T08:48:07;99589.63;;;32.48;41.53
72798;BME280;61084;55.816;37.036;2022-08-07T08:50:58;99587.53;;;32.50;41.15
72798;BME280;61084;55.816;37.036;2022-08-07T08:55:57;99565.56;;;32.58;40.77
72798;BME280;61084;55.816;37.036;2022-08-07T08:58:45;99570.34;;;32.62;41.23
72798;BME280;61084;55.816;37.036;2022-08-07T09:01:33;99563.16;;;32.68;40.16
72798;BME280;61084;55.816;37.036;2022-08-07T09:04:15;99564.00;;;32.68;40.10
72798;BME280;61084;55.816;37.036;2022-08-07T09:09:23;99564.19;;;32.29;39.94
72798;BME280;61084;55.816;37.036;2022-08-07T09:12:27;99560.84;;;32.34;39.64
72798;BME280;61084;55.816;37.036;2022-08-07T09:20:34;99559.06;;;32.52;40.06
72798;BME280;61084;55.816;37.036;2022-08-07T09:23:16;99554.78;;;32.69;40.19
72798;BME280;61084;55.816;37.036;2022-08-07T09:28:39;99552.03;;;32.76;39.02
72798;BME280;61084;55.816;37.036;2022-08-07T09:31:17;99548.97;;;32.66;37.62
72798;BME280;61084;55.816;37.036;2022-08-07T09:34:05;99548.50;;;32.69;37.56
72798;BME280;61084;55.816;37.036;2022-08-07T09:36:42;99541.13;;;32.76;38.11
72798;BME280;61084;55.816;37.036;2022-08-07T09:42:04;99542.69;;;32.65;37.17
72798;BME280;61084;55.816;37.036;2022-08-07T09:44:47;99544.25;;;32.48;37.12
72798;BME280;61084;55.816;37.036;2022-08-07T09:53:10;99538.69;;;31.73;38.33
72798;BME280;61084;55.816;37.036;2022-08-07T10:33:29;99590.91;;;29.61;42.59
72798;BME280;61084;55.816;37.036;2022-08-07T10:36:22;99604.03;;;29.36;43.02
72798;BME280;61084;55.816;37.036;2022-08-07T10:41:48;99594.66;;;28.90;43.87
72798;BME280;61084;55.816;37.036;2022-08-07T10:44:29;99587.91;;;28.79;44.70
72798;BME280;61084;55.816;37.036;2022-08-07T10:50:09;99568.41;;;28.48;44.78
72798;BME280;61084;55.816;37.036;2022-08-07T10:52:46;99564.28;;;28.31;46.40
72798;BME280;61084;55.816;37.036;2022-08-07T10:55:41;99571.09;;;28.12;47.18
72798;BME280;61084;55.816;37.036;2022-08-07T11:01:07;99585.94;;;28.02;48.18
72798;BME280;61084;55.816;37.036;2022-08-07T11:03:41;99614.19;;;27.91;48.24
72798;BME280;61084;55.816;37.036;2022-08-07T11:06:18;99657.47;;;27.83;47.48
72798;BME280;61084;55.816;37.036;2022-08-07T11:09:06;99735.50;;;27.55;47.67
72798;BME280;61084;55.816;37.036;2022-08-07T11:11:42;99767.38;;;27.21;48.66
72798;BME280;61084;55.816;37.036;2022-08-07T11:14:40;99787.47;;;26.80;48.95
72798;BME280;61084;55.816;37.036;2022-08-07T11:20:06;99674.59;;;26.15;53.13
72798;BME280;61084;55.816;37.036;2022-08-07T11:23:07;99649.63;;;25.75;53.68
72798;BME280;61084;55.816;37.036;2022-08-07T11:25:35;99659.41;;;25.35;50.78
72798;BME280;61084;55.816;37.036;2022-08-07T11:28:11;99640.22;;;24.98;56.16
72798;BME280;61084;55.816;37.036;2022-08-07T11:31:06;99652.72;;;24.57;53.38
72798;BME280;61084;55.816;37.036;2022-08-07T11:36:23;99619.88;;;24.14;55.09
72798;BME280;61084;55.816;37.036;2022-08-07T11:41:53;99635.16;;;23.95;58.14
72798;BME280;61084;55.816;37.036;2022-08-07T11:44:30;99635.28;;;23.86;55.19
72798;BME280;61084;55.816;37.036;2022-08-07T11:47:08;99629.88;;;23.78;55.83
72798;BME280;61084;55.816;37.036;2022-08-07T11:49:55;99617.09;;;23.72;54.75
72798;BME280;61084;55.816;37.036;2022-08-07T11:52:44;99629.41;;;23.57;56.66
72798;BME280;61084;55.816;37.036;2022-08-07T11:55:38;99655.00;;;23.51;57.19
72798;BME280;61084;55.816;37.036;2022-08-07T11:58:18;99651.03;;;23.55;57.69
72798;BME280;61084;55.816;37.036;2022-08-07T12:00:57;99642.81;;;23.57;57.88
72798;BME280;61084;55.816;37.036;2022-08-07T12:03:52;99647.34;;;23.56;57.89
72798;BME280;61084;55.816;37.036;2022-08-07T12:06:30;99647.97;;;23.50;57.53
72798;BME280;61084;55.816;37.036;2022-08-07T12:09:10;99657.16;;;23.48;58.23
72798;BME280;61084;55.816;37.036;2022-08-07T12:11:41;99653.78;;;23.46;59.35
72798;BME280;61084;55.816;37.036;2022-08-07T12:14:16;99650.59;;;23.42;57.48
72798;BME280;61084;55.816;37.036;2022-08-07T12:19:20;99676.00;;;23.38;58.01
72798;BME280;61084;55.816;37.036;2022-08-07T12:22:11;99702.78;;;23.38;58.98
72798;BME280;61084;55.816;37.036;2022-08-07T12:24:45;99686.25;;;23.43;58.03
72798;BME280;61084;55.816;37.036;2022-08-07T12:27:37;99677.63;;;23.49;58.93
72798;BME280;61084;55.816;37.036;2022-08-07T12:30:07;99678.97;;;23.53;58.64
72798;BME280;61084;55.816;37.036;2022-08-07T12:32:39;99669.78;;;23.55;58.76
72798;BME280;61084;55.816;37.036;2022-08-07T12:35:09;99653.00;;;23.53;59.32
72798;BME280;61084;55.816;37.036;2022-08-07T12:37:36;99657.16;;;23.48;58.68
72798;BME280;61084;55.816;37.036;2022-08-07T12:40:06;99657.63;;;23.43;59.03
72798;BME280;61084;55.816;37.036;2022-08-07T12:42:33;99653.97;;;23.44;59.09
72798;BME280;61084;55.816;37.036;2022-08-07T12:45:13;99655.84;;;23.52;60.68
72798;BME280;61084;55.816;37.036;2022-08-07T12:50:37;99668.00;;;23.64;60.05
72798;BME280;61084;55.816;37.036;2022-08-07T12:56:38;99692.47;;;23.69;61.16
72798;BME280;61084;55.816;37.036;2022-08-07T12:59:06;99665.19;;;23.73;61.81
72798;BME280;61084;55.816;37.036;2022-08-07T13:01:50;99644.44;;;23.75;60.88
72798;BME280;61084;55.816;37.036;2022-08-07T13:07:13;99658.38;;;23.79;61.83
72798;BME280;61084;55.816;37.036;2022-08-07T13:12:30;99692.44;;;23.86;61.14
72798;BME280;61084;55.816;37.036;2022-08-07T13:17:47;99720.69;;;23.98;61.35
72798;BME280;61084;55.816;37.036;2022-08-07T13:20:24;99726.31;;;24.13;60.93
72798;BME280;61084;55.816;37.036;2022-08-07T13:22:57;99711.81;;;24.32;60.77
72798;BME280;61084;55.816;37.036;2022-08-07T13:25:28;99710.66;;;24.34;60.69
72798;BME280;61084;55.816;37.036;2022-08-07T13:28:02;99710.66;;;24.34;60.20
72798;BME280;61084;55.816;37.036;2022-08-07T13:30:30;99704.13;;;24.37;59.72
72798;BME280;61084;55.816;37.036;2022-08-07T13:33:04;99698.47;;;24.40;60.45
72798;BME280;61084;55.816;37.036;2022-08-07T13:35:41;99703.97;;;24.38;59.69
72798;BME280;61084;55.816;37.036;2022-08-07T13:38:38;99693.72;;;24.34;59.90
72798;BME280;61084;55.816;37.036;2022-08-07T13:44:01;99676.78;;;24.33;59.01
72798;BME280;61084;55.816;37.036;2022-08-07T13:46:33;99676.44;;;24.36;60.19
72798;BME280;61084;55.816;37.036;2022-08-07T13:49:01;99672.97;;;24.36;59.86
72798;BME280;61084;55.816;37.036;2022-08-07T13:51:29;99665.09;;;24.42;59.88
72798;BME280;61084;55.816;37.036;2022-08-07T13:54:02;99659.22;;;24.47;59.42
72798;BME280;61084;55.816;37.036;2022-08-07T13:56:31;99654.53;;;24.49;59.29
72798;BME280;61084;55.816;37.036;2022-08-07T13:58:58;99654.38;;;24.50;59.26
72798;BME280;61084;55.816;37.036;2022-08-07T14:01:28;99661.59;;;24.58;59.29
72798;BME280;61084;55.816;37.036;2022-08-07T14:03:56;99664.63;;;24.63;59.18
72798;BME280;61084;55.816;37.036;2022-08-07T14:06:30;99650.06;;;24.65;59.45
72798;BME280;61084;55.816;37.036;2022-08-07T14:08:57;99656.09;;;24.67;59.20
72798;BME280;61084;55.816;37.036;2022-08-07T14:11:27;99652.25;;;24.70;59.22
72798;BME280;61084;55.816;37.036;2022-08-07T14:13:57;99659.28;;;24.71;59.19
72798;BME280;61084;55.816;37.036;2022-08-07T14:16:35;99654.09;;;24.69;59.13
72798;BME280;61084;55.816;37.036;2022-08-07T14:19:16;99638.81;;;24.70;59.49
72798;BME280;61084;55.816;37.036;2022-08-07T14:21:44;99632.78;;;24.68;58.82
72798;BME280;61084;55.816;37.036;2022-08-07T14:24:24;99632.44;;;24.71;58.99
72798;BME280;61084;55.816;37.036;2022-08-07T14:26:55;99637.47;;;24.74;59.32
72798;BME280;61084;55.816;37.036;2022-08-07T14:29:27;99636.50;;;24.75;58.92
72798;BME280;61084;55.816;37.036;2022-08-07T14:31:59;99639.19;;;24.75;58.85
72798;BME280;61084;55.816;37.036;2022-08-07T14:34:28;99640.34;;;24.73;58.94
72798;BME280;61084;55.816;37.036;2022-08-07T14:36:55;99638.81;;;24.70;58.55
72798;BME280;61084;55.816;37.036;2022-08-07T14:39:22;99638.97;;;24.68;58.32
72798;BME280;61084;55.816;37.036;2022-08-07T14:41:51;99637.31;;;24.67;58.89
72798;BME280;61084;55.816;37.036;2022-08-07T14:44:17;99640.84;;;24.68;58.70
72798;BME280;61084;55.816;37.036;2022-08-07T14:46:45;99643.66;;;24.66;58.57
72798;BME280;61084;55.816;37.036;2022-08-07T14:49:13;99635.09;;;24.63;58.65
72798;BME280;61084;55.816;37.036;2022-08-07T14:51:41;99644.31;;;24.60;58.23
72798;BME280;61084;55.816;37.036;2022-08-07T14:54:08;99648.53;;;24.55;58.40
72798;BME280;61084;55.816;37.036;2022-08-07T14:56:40;99652.53;;;24.51;58.82
72798;BME280;61084;55.816;37.036;2022-08-07T14:59:10;99663.59;;;24.48;59.27
72798;BME280;61084;55.816;37.036;2022-08-07T15:01:38;99664.75;;;24.45;59.49
72798;BME280;61084;55.816;37.036;2022-08-07T15:04:06;99668.59;;;24.43;59.04
72798;BME280;61084;55.816;37.036;2022-08-07T15:06:34;99662.56;;;24.41;59.36
72798;BME280;61084;55.816;37.036;2022-08-07T15:09:03;99662.91;;;24.38;59.85